sensor_id;sensor_type;location;lat;lon;timestamp;P1;durP1;ratioP1;P2;durP2;ratioP2
9370;SDS011;4725;48.384;8.984;2023-03-11T00:00:05;0.40;;;0.40;;
9370;SDS011;4725;48.384;8.984;2023-03-11T00:02:38;0.57;;;0.50;;
9370;SDS011;4725;48.384;8.984;2023-03-11T00:05:05;0.50;;;0.50;;
9370;SDS011;4725;48.384;8.984;2023-03-11T00:07:33;1.10;;;0.60;;
9370;SDS011;4725;48.384;8.984;2023-03-11T00:10:02;0.73;;;0.60;;
9370;SDS011;4725;48.384;8.984;2023-03-11T00:12:29;0.60;;;0.60;;
9370;SDS011;4725;48.384;8.984;2023-03-11T00:14:57;0.70;;;0.63;;
9370;SDS011;4725;48.384;8.984;2023-03-11T00:17:24;1.03;;;0.63;;
9370;SDS011;4725;48.384;8.984;2023-03-11T00:19:51;0.60;;;0.50;;
9370;SDS011;4725;48.384;8.984;2023-03-11T00:22:18;1.23;;;0.80;;
9370;SDS011;4725;48.384;8.984;2023-03-11T00:24:45;0.30;;;0.30;;
9370;SDS011;4725;48.384;8.984;2023-03-11T00:27:12;0.57;;;0.53;;
9370;SDS011;4725;48.384;8.984;2023-03-11T00:29:39;0.63;;;0.53;;
9370;SDS011;4725;48.384;8.984;2023-03-11T00:32:07;0.40;;;0.40;;
9370;SDS011;4725;48.384;8.984;2023-03-11T00:34:34;1.00;;;0.90;;
9370;SDS011;4725;48.384;8.984;2023-03-11T00:37:01;0.83;;;0.67;;
9370;SDS011;4725;48.384;8.984;2023-03-11T00:39:28;2.73;;;0.90;;
9370;SDS011;4725;48.384;8.984;2023-03-11T00:41:55;0.30;;;0.30;;
9370;SDS011;4725;48.384;8.984;2023-03-11T00:44:22;0.50;;;0.50;;
9370;SDS011;4725;48.384;8.984;2023-03-11T00:46:49;0.53;;;0.50;;
9370;SDS011;4725;48.384;8.984;2023-03-11T00:49:17;0.53;;;0.53;;
9370;SDS011;4725;48.384;8.984;2023-03-11T00:51:44;1.17;;;0.57;;
9370;SDS011;4725;48.384;8.984;2023-03-11T00:54:11;1.00;;;0.73;;
9370;SDS011;4725;48.384;8.984;2023-03-11T00:56:38;0.40;;;0.40;;
9370;SDS011;4725;48.384;8.984;2023-03-11T00:59:05;0.40;;;0.40;;
9370;SDS011;4725;48.384;8.984;2023-03-11T01:01:32;1.97;;;0.60;;
9370;SDS011;4725;48.384;8.984;2023-03-11T01:03:59;1.07;;;0.63;;
9370;SDS011;4725;48.384;8.984;2023-03-11T01:06:28;1.53;;;0.70;;
9370;SDS011;4725;48.384;8.984;2023-03-11T01:08:55;0.80;;;0.80;;
9370;SDS011;4725;48.384;8.984;2023-03-11T01:11:21;0.47;;;0.47;;
9370;SDS011;4725;48.384;8.984;2023-03-11T01:13:48;1.20;;;0.63;;
9370;SDS011;4725;48.384;8.984;2023-03-11T01:16:15;3.03;;;0.60;;
9370;SDS011;4725;48.384;8.984;2023-03-11T01:18:42;0.50;;;0.50;;
9370;SDS011;4725;48.384;8.984;2023-03-11T01:21:09;0.73;;;0.63;;
9370;SDS011;4725;48.384;8.984;2023-03-11T01:23:37;1.20;;;0.70;;
9370;SDS011;4725;48.384;8.984;2023-03-11T01:26:05;0.63;;;0.60;;
9370;SDS011;4725;48.384;8.984;2023-03-11T01:28:32;1.27;;;0.70;;
9370;SDS011;4725;48.384;8.984;2023-03-11T01:30:59;2.10;;;0.50;;
9370;SDS011;4725;48.384;8.984;2023-03-11T01:33:26;1.93;;;0.73;;
9370;SDS011;4725;48.384;8.984;2023-03-11T01:35:54;0.60;;;0.60;;
9370;SDS011;4725;48.384;8.984;2023-03-11T01:38:20;0.87;;;0.73;;
9370;SDS011;4725;48.384;8.984;2023-03-11T01:40:49;0.60;;;0.60;;
9370;SDS011;4725;48.384;8.984;2023-03-11T01:43:37;2.83;;;0.80;;
9370;SDS011;4725;48.384;8.984;2023-03-11T01:46:16;1.80;;;0.93;;
9370;SDS011;4725;48.384;8.984;2023-03-11T01:48:45;1.50;;;0.63;;
9370;SDS011;4725;48.384;8.984;2023-03-11T01:51:14;0.97;;;0.67;;
9370;SDS011;4725;48.384;8.984;2023-03-11T01:53:44;1.60;;;0.90;;
9370;SDS011;4725;48.384;8.984;2023-03-11T01:56:13;0.60;;;0.60;;
9370;SDS011;4725;48.384;8.984;2023-03-11T01:58:41;1.77;;;0.87;;
9370;SDS011;4725;48.384;8.984;2023-03-11T02:01:10;2.97;;;1.10;;
9370;SDS011;4725;48.384;8.984;2023-03-11T02:03:38;0.60;;;0.60;;
9370;SDS011;4725;48.384;8.984;2023-03-11T02:06:07;1.13;;;0.70;;
9370;SDS011;4725;48.384;8.984;2023-03-11T02:08:36;1.93;;;0.60;;
9370;SDS011;4725;48.384;8.984;2023-03-11T02:11:05;1.00;;;0.90;;
9370;SDS011;4725;48.384;8.984;2023-03-11T02:13:37;1.10;;;0.67;;
9370;SDS011;4725;48.384;8.984;2023-03-11T02:16:06;1.57;;;0.90;;
9370;SDS011;4725;48.384;8.984;2023-03-11T02:18:33;1.60;;;0.70;;
9370;SDS011;4725;48.384;8.984;2023-03-11T02:21:03;0.70;;;0.60;;
9370;SDS011;4725;48.384;8.984;2023-03-11T02:23:38;2.23;;;0.83;;
9370;SDS011;4725;48.384;8.984;2023-03-11T02:26:12;0.83;;;0.70;;
9370;SDS011;4725;48.384;8.984;2023-03-11T02:28:45;1.23;;;0.70;;
9370;SDS011;4725;48.384;8.984;2023-03-11T02:31:14;1.37;;;0.80;;
9370;SDS011;4725;48.384;8.984;2023-03-11T02:33:41;0.97;;;0.57;;
9370;SDS011;4725;48.384;8.984;2023-03-11T02:38:56;2.00;;;0.90;;
9370;SDS011;4725;48.384;8.984;2023-03-11T02:41:22;1.57;;;0.97;;
9370;SDS011;4725;48.384;8.984;2023-03-11T02:43:51;1.00;;;0.80;;
9370;SDS011;4725;48.384;8.984;2023-03-11T02:46:18;1.20;;;0.87;;
9370;SDS011;4725;48.384;8.984;2023-03-11T02:48:45;0.70;;;0.70;;
9370;SDS011;4725;48.384;8.984;2023-03-11T02:51:13;1.50;;;0.83;;
9370;SDS011;4725;48.384;8.984;2023-03-11T02:53:42;0.93;;;0.70;;
9370;SDS011;4725;48.384;8.984;2023-03-11T02:56:12;0.83;;;0.80;;
9370;SDS011;4725;48.384;8.984;2023-03-11T02:58:40;1.20;;;0.73;;
9370;SDS011;4725;48.384;8.984;2023-03-11T03:01:08;1.13;;;1.03;;
9370;SDS011;4725;48.384;8.984;2023-03-11T03:03:35;1.77;;;0.97;;
9370;SDS011;4725;48.384;8.984;2023-03-11T03:06:03;1.20;;;0.57;;
9370;SDS011;4725;48.384;8.984;2023-03-11T03:08:30;1.37;;;0.60;;
9370;SDS011;4725;48.384;8.984;2023-03-11T03:10:57;0.60;;;0.60;;
9370;SDS011;4725;48.384;8.984;2023-03-11T03:13:25;1.27;;;0.57;;
9370;SDS011;4725;48.384;8.984;2023-03-11T03:15:52;1.40;;;0.93;;
9370;SDS011;4725;48.384;8.984;2023-03-11T03:18:20;0.97;;;0.87;;
9370;SDS011;4725;48.384;8.984;2023-03-11T03:20:47;2.33;;;0.73;;
9370;SDS011;4725;48.384;8.984;2023-03-11T03:23:15;1.00;;;0.90;;
9370;SDS011;4725;48.384;8.984;2023-03-11T03:25:42;1.00;;;0.73;;
9370;SDS011;4725;48.384;8.984;2023-03-11T03:28:10;1.00;;;0.70;;
9370;SDS011;4725;48.384;8.984;2023-03-11T03:30:38;0.93;;;0.70;;
9370;SDS011;4725;48.384;8.984;2023-03-11T03:33:06;2.80;;;1.40;;
9370;SDS011;4725;48.384;8.984;2023-03-11T03:35:34;3.23;;;1.23;;
9370;SDS011;4725;48.384;8.984;2023-03-11T03:38:05;2.20;;;1.30;;
9370;SDS011;4725;48.384;8.984;2023-03-11T03:40:32;1.80;;;1.43;;
9370;SDS011;4725;48.384;8.984;2023-03-11T03:42:59;1.30;;;0.90;;
9370;SDS011;4725;48.384;8.984;2023-03-11T03:45:26;1.07;;;0.90;;
9370;SDS011;4725;48.384;8.984;2023-03-11T03:47:52;2.13;;;0.90;;
9370;SDS011;4725;48.384;8.984;2023-03-11T03:50:19;2.20;;;1.10;;
9370;SDS011;4725;48.384;8.984;2023-03-11T03:52:48;3.13;;;1.00;;
9370;SDS011;4725;48.384;8.984;2023-03-11T03:55:15;1.00;;;0.80;;
9370;SDS011;4725;48.384;8.984;2023-03-11T03:57:42;3.43;;;0.77;;
9370;SDS011;4725;48.384;8.984;2023-03-11T04:00:09;0.77;;;0.60;;
9370;SDS011;4725;48.384;8.984;2023-03-11T04:02:37;0.67;;;0.60;;
9370;SDS011;4725;48.384;8.984;2023-03-11T04:05:04;1.40;;;0.70;;
9370;SDS011;4725;48.384;8.984;2023-03-11T04:07:32;1.20;;;0.60;;
9370;SDS011;4725;48.384;8.984;2023-03-11T04:10:01;1.40;;;0.80;;
9370;SDS011;4725;48.384;8.984;2023-03-11T04:12:28;1.00;;;0.90;;
9370;SDS011;4725;48.384;8.984;2023-03-11T04:14:55;1.40;;;0.90;;
9370;SDS011;4725;48.384;8.984;2023-03-11T04:17:22;1.33;;;0.60;;
9370;SDS011;4725;48.384;8.984;2023-03-11T04:19:49;1.93;;;0.90;;
9370;SDS011;4725;48.384;8.984;2023-03-11T04:22:16;1.50;;;0.83;;
9370;SDS011;4725;48.384;8.984;2023-03-11T04:24:43;0.63;;;0.63;;
9370;SDS011;4725;48.384;8.984;2023-03-11T04:27:11;5.90;;;1.00;;
9370;SDS011;4725;48.384;8.984;2023-03-11T04:29:38;1.13;;;0.90;;
9370;SDS011;4725;48.384;8.984;2023-03-11T04:32:05;2.53;;;0.80;;
9370;SDS011;4725;48.384;8.984;2023-03-11T04:34:32;2.90;;;0.90;;
9370;SDS011;4725;48.384;8.984;2023-03-11T04:36:59;4.07;;;1.10;;
9370;SDS011;4725;48.384;8.984;2023-03-11T04:39:26;2.33;;;1.40;;
9370;SDS011;4725;48.384;8.984;2023-03-11T04:41:53;1.40;;;0.93;;
9370;SDS011;4725;48.384;8.984;2023-03-11T04:44:21;1.53;;;0.90;;
9370;SDS011;4725;48.384;8.984;2023-03-11T04:46:48;3.23;;;1.20;;
9370;SDS011;4725;48.384;8.984;2023-03-11T04:49:15;3.60;;;1.13;;
9370;SDS011;4725;48.384;8.984;2023-03-11T04:51:42;2.73;;;1.40;;
9370;SDS011;4725;48.384;8.984;2023-03-11T04:54:09;1.90;;;1.17;;
9370;SDS011;4725;48.384;8.984;2023-03-11T04:56:36;1.33;;;1.20;;
9370;SDS011;4725;48.384;8.984;2023-03-11T04:59:03;2.37;;;1.20;;
9370;SDS011;4725;48.384;8.984;2023-03-11T05:01:31;2.20;;;1.30;;
9370;SDS011;4725;48.384;8.984;2023-03-11T05:03:58;3.03;;;1.60;;
9370;SDS011;4725;48.384;8.984;2023-03-11T05:06:25;2.57;;;1.20;;
9370;SDS011;4725;48.384;8.984;2023-03-11T05:08:52;1.07;;;0.73;;
9370;SDS011;4725;48.384;8.984;2023-03-11T05:11:19;1.90;;;0.70;;
9370;SDS011;4725;48.384;8.984;2023-03-11T05:13:46;2.03;;;0.90;;
9370;SDS011;4725;48.384;8.984;2023-03-11T05:16:12;3.27;;;1.10;;
9370;SDS011;4725;48.384;8.984;2023-03-11T05:18:41;2.07;;;1.60;;
9370;SDS011;4725;48.384;8.984;2023-03-11T05:21:08;3.07;;;1.33;;
9370;SDS011;4725;48.384;8.984;2023-03-11T05:23:35;2.50;;;1.37;;
9370;SDS011;4725;48.384;8.984;2023-03-11T05:26:01;1.97;;;1.07;;
9370;SDS011;4725;48.384;8.984;2023-03-11T05:28:28;3.87;;;0.80;;
9370;SDS011;4725;48.384;8.984;2023-03-11T05:30:55;1.03;;;0.70;;
9370;SDS011;4725;48.384;8.984;2023-03-11T05:33:22;2.30;;;0.77;;
9370;SDS011;4725;48.384;8.984;2023-03-11T05:35:51;2.93;;;0.97;;
9370;SDS011;4725;48.384;8.984;2023-03-11T05:38:17;3.37;;;0.90;;
9370;SDS011;4725;48.384;8.984;2023-03-11T05:40:44;1.20;;;0.83;;
9370;SDS011;4725;48.384;8.984;2023-03-11T05:43:11;1.00;;;0.60;;
9370;SDS011;4725;48.384;8.984;2023-03-11T05:45:38;1.10;;;0.60;;
9370;SDS011;4725;48.384;8.984;2023-03-11T05:48:05;4.00;;;1.00;;
9370;SDS011;4725;48.384;8.984;2023-03-11T05:50:32;3.80;;;1.00;;
9370;SDS011;4725;48.384;8.984;2023-03-11T05:53:00;2.57;;;0.80;;
9370;SDS011;4725;48.384;8.984;2023-03-11T05:55:27;2.03;;;0.87;;
9370;SDS011;4725;48.384;8.984;2023-03-11T05:57:54;1.67;;;0.90;;
9370;SDS011;4725;48.384;8.984;2023-03-11T06:00:21;4.23;;;1.40;;
9370;SDS011;4725;48.384;8.984;2023-03-11T06:02:48;2.73;;;1.33;;
9370;SDS011;4725;48.384;8.984;2023-03-11T06:05:15;1.47;;;0.80;;
9370;SDS011;4725;48.384;8.984;2023-03-11T06:07:42;3.73;;;1.13;;
9370;SDS011;4725;48.384;8.984;2023-03-11T06:10:11;2.33;;;0.87;;
9370;SDS011;4725;48.384;8.984;2023-03-11T06:12:38;1.30;;;0.83;;
9370;SDS011;4725;48.384;8.984;2023-03-11T06:15:06;3.47;;;1.13;;
9370;SDS011;4725;48.384;8.984;2023-03-11T06:17:33;4.10;;;0.60;;
9370;SDS011;4725;48.384;8.984;2023-03-11T06:20:00;1.50;;;0.73;;
9370;SDS011;4725;48.384;8.984;2023-03-11T06:22:29;3.53;;;1.40;;
9370;SDS011;4725;48.384;8.984;2023-03-11T06:24:56;8.30;;;2.40;;
9370;SDS011;4725;48.384;8.984;2023-03-11T06:27:24;5.17;;;2.80;;
9370;SDS011;4725;48.384;8.984;2023-03-11T06:29:51;2.27;;;2.03;;
9370;SDS011;4725;48.384;8.984;2023-03-11T06:32:19;2.40;;;1.50;;
9370;SDS011;4725;48.384;8.984;2023-03-11T06:34:48;1.87;;;1.30;;
9370;SDS011;4725;48.384;8.984;2023-03-11T06:37:16;2.20;;;1.00;;
9370;SDS011;4725;48.384;8.984;2023-03-11T06:39:43;3.50;;;1.17;;
9370;SDS011;4725;48.384;8.984;2023-03-11T06:42:10;2.43;;;1.20;;
9370;SDS011;4725;48.384;8.984;2023-03-11T06:44:39;3.33;;;0.93;;
9370;SDS011;4725;48.384;8.984;2023-03-11T06:47:05;2.60;;;1.00;;
9370;SDS011;4725;48.384;8.984;2023-03-11T06:49:32;2.70;;;1.00;;
9370;SDS011;4725;48.384;8.984;2023-03-11T06:52:01;1.67;;;0.70;;
9370;SDS011;4725;48.384;8.984;2023-03-11T06:54:27;3.57;;;1.03;;
9370;SDS011;4725;48.384;8.984;2023-03-11T06:56:54;2.10;;;1.03;;
9370;SDS011;4725;48.384;8.984;2023-03-11T06:59:21;1.37;;;0.80;;
9370;SDS011;4725;48.384;8.984;2023-03-11T07:01:49;2.30;;;1.23;;
9370;SDS011;4725;48.384;8.984;2023-03-11T07:04:16;1.23;;;0.60;;
9370;SDS011;4725;48.384;8.984;2023-03-11T07:06:43;3.10;;;0.90;;
9370;SDS011;4725;48.384;8.984;2023-03-11T07:09:10;1.83;;;1.20;;
9370;SDS011;4725;48.384;8.984;2023-03-11T07:11:37;1.73;;;0.80;;
9370;SDS011;4725;48.384;8.984;2023-03-11T07:14:04;4.30;;;1.43;;
9370;SDS011;4725;48.384;8.984;2023-03-11T07:16:31;2.70;;;0.90;;
9370;SDS011;4725;48.384;8.984;2023-03-11T07:19:00;2.00;;;0.67;;
9370;SDS011;4725;48.384;8.984;2023-03-11T07:21:28;1.60;;;0.83;;
9370;SDS011;4725;48.384;8.984;2023-03-11T07:23:56;1.60;;;1.10;;
9370;SDS011;4725;48.384;8.984;2023-03-11T07:26:25;2.83;;;1.30;;
9370;SDS011;4725;48.384;8.984;2023-03-11T07:28:53;3.23;;;1.57;;
9370;SDS011;4725;48.384;8.984;2023-03-11T07:31:22;4.20;;;1.20;;
9370;SDS011;4725;48.384;8.984;2023-03-11T07:33:50;4.33;;;1.17;;
9370;SDS011;4725;48.384;8.984;2023-03-11T07:36:19;2.87;;;1.50;;
9370;SDS011;4725;48.384;8.984;2023-03-11T07:38:48;2.07;;;0.80;;
9370;SDS011;4725;48.384;8.984;2023-03-11T07:41:19;2.90;;;0.90;;
9370;SDS011;4725;48.384;8.984;2023-03-11T07:43:46;1.80;;;1.00;;
9370;SDS011;4725;48.384;8.984;2023-03-11T07:46:14;1.20;;;0.83;;
9370;SDS011;4725;48.384;8.984;2023-03-11T07:48:42;3.03;;;1.17;;
9370;SDS011;4725;48.384;8.984;2023-03-11T07:51:11;0.87;;;0.43;;
9370;SDS011;4725;48.384;8.984;2023-03-11T07:53:41;1.53;;;0.80;;
9370;SDS011;4725;48.384;8.984;2023-03-11T07:56:09;7.53;;;1.20;;
9370;SDS011;4725;48.384;8.984;2023-03-11T07:58:37;1.23;;;0.53;;
9370;SDS011;4725;48.384;8.984;2023-03-11T08:01:05;3.43;;;0.70;;
9370;SDS011;4725;48.384;8.984;2023-03-11T08:03:34;0.43;;;0.43;;
9370;SDS011;4725;48.384;8.984;2023-03-11T08:06:01;3.53;;;0.57;;
9370;SDS011;4725;48.384;8.984;2023-03-11T08:08:28;1.30;;;0.63;;
9370;SDS011;4725;48.384;8.984;2023-03-11T08:10:57;3.80;;;0.80;;
9370;SDS011;4725;48.384;8.984;2023-03-11T08:13:27;0.47;;;0.40;;
9370;SDS011;4725;48.384;8.984;2023-03-11T08:15:54;0.97;;;0.50;;
9370;SDS011;4725;48.384;8.984;2023-03-11T08:18:21;3.73;;;0.77;;
9370;SDS011;4725;48.384;8.984;2023-03-11T08:20:48;1.47;;;0.70;;
9370;SDS011;4725;48.384;8.984;2023-03-11T08:23:15;2.20;;;0.70;;
9370;SDS011;4725;48.384;8.984;2023-03-11T08:25:42;2.93;;;0.77;;
9370;SDS011;4725;48.384;8.984;2023-03-11T08:28:10;1.90;;;0.57;;
9370;SDS011;4725;48.384;8.984;2023-03-11T08:30:37;1.27;;;0.83;;
9370;SDS011;4725;48.384;8.984;2023-03-11T08:33:04;3.47;;;1.20;;
9370;SDS011;4725;48.384;8.984;2023-03-11T08:35:31;1.00;;;0.60;;
9370;SDS011;4725;48.384;8.984;2023-03-11T08:37:58;2.03;;;1.07;;
9370;SDS011;4725;48.384;8.984;2023-03-11T08:40:25;2.40;;;1.00;;
9370;SDS011;4725;48.384;8.984;2023-03-11T08:42:53;2.90;;;0.90;;
9370;SDS011;4725;48.384;8.984;2023-03-11T08:45:22;4.70;;;1.17;;
9370;SDS011;4725;48.384;8.984;2023-03-11T08:47:49;3.43;;;0.83;;
9370;SDS011;4725;48.384;8.984;2023-03-11T08:50:16;2.10;;;0.80;;
9370;SDS011;4725;48.384;8.984;2023-03-11T08:52:45;2.50;;;0.67;;
9370;SDS011;4725;48.384;8.984;2023-03-11T08:55:12;2.10;;;0.87;;
9370;SDS011;4725;48.384;8.984;2023-03-11T08:57:42;1.23;;;0.63;;
9370;SDS011;4725;48.384;8.984;2023-03-11T09:00:11;4.80;;;0.83;;
9370;SDS011;4725;48.384;8.984;2023-03-11T09:02:39;1.73;;;1.20;;
9370;SDS011;4725;48.384;8.984;2023-03-11T09:05:07;0.83;;;0.70;;
9370;SDS011;4725;48.384;8.984;2023-03-11T09:07:35;4.33;;;1.00;;
9370;SDS011;4725;48.384;8.984;2023-03-11T09:10:02;1.50;;;0.70;;
9370;SDS011;4725;48.384;8.984;2023-03-11T09:12:29;3.13;;;1.03;;
9370;SDS011;4725;48.384;8.984;2023-03-11T09:14:56;2.47;;;0.80;;
9370;SDS011;4725;48.384;8.984;2023-03-11T09:17:23;3.30;;;1.50;;
9370;SDS011;4725;48.384;8.984;2023-03-11T09:19:51;3.37;;;1.00;;
9370;SDS011;4725;48.384;8.984;2023-03-11T09:22:18;2.17;;;1.43;;
9370;SDS011;4725;48.384;8.984;2023-03-11T09:24:45;2.13;;;0.97;;
9370;SDS011;4725;48.384;8.984;2023-03-11T09:27:12;1.20;;;0.60;;
9370;SDS011;4725;48.384;8.984;2023-03-11T09:29:39;2.57;;;0.70;;
9370;SDS011;4725;48.384;8.984;2023-03-11T09:32:06;3.83;;;2.00;;
9370;SDS011;4725;48.384;8.984;2023-03-11T09:34:37;2.60;;;1.00;;
9370;SDS011;4725;48.384;8.984;2023-03-11T09:37:05;1.67;;;0.70;;
9370;SDS011;4725;48.384;8.984;2023-03-11T09:39:32;1.77;;;0.70;;
9370;SDS011;4725;48.384;8.984;2023-03-11T09:42:01;2.00;;;0.80;;
9370;SDS011;4725;48.384;8.984;2023-03-11T09:44:36;2.50;;;1.00;;
9370;SDS011;4725;48.384;8.984;2023-03-11T09:47:17;7.83;;;0.90;;
9370;SDS011;4725;48.384;8.984;2023-03-11T09:50:19;1.13;;;0.73;;
9370;SDS011;4725;48.384;8.984;2023-03-11T09:55:47;2.40;;;0.80;;
9370;SDS011;4725;48.384;8.984;2023-03-11T09:58:16;2.83;;;0.77;;
9370;SDS011;4725;48.384;8.984;2023-03-11T10:00:48;1.17;;;0.77;;
9370;SDS011;4725;48.384;8.984;2023-03-11T10:03:26;1.30;;;0.60;;
9370;SDS011;4725;48.384;8.984;2023-03-11T10:06:08;3.30;;;1.13;;
9370;SDS011;4725;48.384;8.984;2023-03-11T10:08:43;1.67;;;1.07;;
9370;SDS011;4725;48.384;8.984;2023-03-11T10:11:15;5.43;;;1.30;;
9370;SDS011;4725;48.384;8.984;2023-03-11T10:13:52;5.20;;;0.87;;
9370;SDS011;4725;48.384;8.984;2023-03-11T10:16:30;3.33;;;1.37;;
9370;SDS011;4725;48.384;8.984;2023-03-11T10:19:08;3.20;;;0.70;;
9370;SDS011;4725;48.384;8.984;2023-03-11T10:21:45;2.13;;;0.93;;
9370;SDS011;4725;48.384;8.984;2023-03-11T10:24:22;0.87;;;0.63;;
9370;SDS011;4725;48.384;8.984;2023-03-11T10:27:07;4.50;;;1.10;;
9370;SDS011;4725;48.384;8.984;2023-03-11T10:29:41;1.73;;;0.93;;
9370;SDS011;4725;48.384;8.984;2023-03-11T10:32:16;3.00;;;0.90;;
9370;SDS011;4725;48.384;8.984;2023-03-11T10:34:47;0.77;;;0.70;;
9370;SDS011;4725;48.384;8.984;2023-03-11T10:37:18;1.60;;;0.87;;
9370;SDS011;4725;48.384;8.984;2023-03-11T10:39:51;1.90;;;0.80;;
9370;SDS011;4725;48.384;8.984;2023-03-11T10:42:19;3.13;;;1.00;;
9370;SDS011;4725;48.384;8.984;2023-03-11T10:44:48;3.90;;;1.20;;
9370;SDS011;4725;48.384;8.984;2023-03-11T10:47:16;1.67;;;0.80;;
9370;SDS011;4725;48.384;8.984;2023-03-11T10:49:45;1.63;;;0.90;;
9370;SDS011;4725;48.384;8.984;2023-03-11T10:52:12;2.37;;;1.00;;
9370;SDS011;4725;48.384;8.984;2023-03-11T10:54:40;1.77;;;1.00;;
9370;SDS011;4725;48.384;8.984;2023-03-11T10:57:22;1.77;;;1.23;;
9370;SDS011;4725;48.384;8.984;2023-03-11T10:59:50;1.92;;;1.13;;
9370;SDS011;4725;48.384;8.984;2023-03-11T11:02:23;2.70;;;1.20;;
9370;SDS011;4725;48.384;8.984;2023-03-11T11:05:07;6.07;;;1.30;;
9370;SDS011;4725;48.384;8.984;2023-03-11T11:08:00;2.73;;;1.20;;
9370;SDS011;4725;48.384;8.984;2023-03-11T11:10:33;2.13;;;1.17;;
9370;SDS011;4725;48.384;8.984;2023-03-11T11:13:14;1.27;;;1.00;;
9370;SDS011;4725;48.384;8.984;2023-03-11T11:15:50;2.72;;;1.58;;
9370;SDS011;4725;48.384;8.984;2023-03-11T11:18:20;2.50;;;1.00;;
9370;SDS011;4725;48.384;8.984;2023-03-11T11:20:53;3.22;;;1.20;;
9370;SDS011;4725;48.384;8.984;2023-03-11T11:23:27;2.03;;;1.15;;
9370;SDS011;4725;48.384;8.984;2023-03-11T11:25:58;3.95;;;1.40;;
9370;SDS011;4725;48.384;8.984;2023-03-11T11:28:30;2.50;;;1.30;;
9370;SDS011;4725;48.384;8.984;2023-03-11T11:30:58;2.40;;;1.27;;
9370;SDS011;4725;48.384;8.984;2023-03-11T11:33:29;4.38;;;1.30;;
9370;SDS011;4725;48.384;8.984;2023-03-11T11:35:58;2.45;;;1.40;;
9370;SDS011;4725;48.384;8.984;2023-03-11T11:38:27;4.53;;;1.23;;
9370;SDS011;4725;48.384;8.984;2023-03-11T11:40:57;3.58;;;1.10;;
9370;SDS011;4725;48.384;8.984;2023-03-11T11:43:34;1.83;;;1.10;;
9370;SDS011;4725;48.384;8.984;2023-03-11T11:46:10;2.63;;;1.48;;
9370;SDS011;4725;48.384;8.984;2023-03-11T11:48:46;2.55;;;1.20;;
9370;SDS011;4725;48.384;8.984;2023-03-11T11:51:22;3.15;;;1.40;;
9370;SDS011;4725;48.384;8.984;2023-03-11T11:53:54;3.40;;;1.55;;
9370;SDS011;4725;48.384;8.984;2023-03-11T11:56:24;2.92;;;1.60;;
9370;SDS011;4725;48.384;8.984;2023-03-11T11:58:53;3.00;;;1.42;;
9370;SDS011;4725;48.384;8.984;2023-03-11T12:01:23;1.27;;;1.05;;
9370;SDS011;4725;48.384;8.984;2023-03-11T12:04:06;1.52;;;0.98;;
9370;SDS011;4725;48.384;8.984;2023-03-11T12:07:08;2.00;;;1.10;;
9370;SDS011;4725;48.384;8.984;2023-03-11T12:09:46;1.20;;;0.90;;
9370;SDS011;4725;48.384;8.984;2023-03-11T12:12:21;2.47;;;1.20;;
9370;SDS011;4725;48.384;8.984;2023-03-11T12:14:59;0.95;;;0.90;;
9370;SDS011;4725;48.384;8.984;2023-03-11T12:17:31;3.70;;;1.13;;
9370;SDS011;4725;48.384;8.984;2023-03-11T12:20:04;1.60;;;1.20;;
9370;SDS011;4725;48.384;8.984;2023-03-11T12:22:46;1.95;;;1.17;;
9370;SDS011;4725;48.384;8.984;2023-03-11T12:25:27;3.50;;;1.38;;
9370;SDS011;4725;48.384;8.984;2023-03-11T12:28:00;2.28;;;1.40;;
9370;SDS011;4725;48.384;8.984;2023-03-11T12:30:39;2.47;;;1.80;;
9370;SDS011;4725;48.384;8.984;2023-03-11T12:33:10;2.45;;;1.40;;
9370;SDS011;4725;48.384;8.984;2023-03-11T12:35:46;2.40;;;1.45;;
9370;SDS011;4725;48.384;8.984;2023-03-11T12:38:18;2.67;;;1.55;;
9370;SDS011;4725;48.384;8.984;2023-03-11T12:40:58;2.85;;;1.60;;
9370;SDS011;4725;48.384;8.984;2023-03-11T12:46:24;1.52;;;1.35;;
9370;SDS011;4725;48.384;8.984;2023-03-11T12:49:36;1.23;;;1.13;;
9370;SDS011;4725;48.384;8.984;2023-03-11T12:52:15;3.05;;;1.42;;
9370;SDS011;4725;48.384;8.984;2023-03-11T12:54:45;1.90;;;1.20;;
9370;SDS011;4725;48.384;8.984;2023-03-11T12:57:24;3.00;;;1.50;;
9370;SDS011;4725;48.384;8.984;2023-03-11T13:00:15;2.35;;;1.60;;
9370;SDS011;4725;48.384;8.984;2023-03-11T13:03:13;3.05;;;1.40;;
9370;SDS011;4725;48.384;8.984;2023-03-11T13:05:56;1.73;;;1.42;;
9370;SDS011;4725;48.384;8.984;2023-03-11T13:08:32;2.03;;;1.35;;
9370;SDS011;4725;48.384;8.984;2023-03-11T13:14:15;2.72;;;1.48;;
9370;SDS011;4725;48.384;8.984;2023-03-11T13:16:54;3.97;;;1.67;;
9370;SDS011;4725;48.384;8.984;2023-03-11T13:25:24;3.35;;;1.85;;
9370;SDS011;4725;48.384;8.984;2023-03-11T13:27:54;2.97;;;1.40;;
9370;SDS011;4725;48.384;8.984;2023-03-11T13:30:27;1.95;;;1.30;;
9370;SDS011;4725;48.384;8.984;2023-03-11T13:33:06;3.15;;;1.55;;
9370;SDS011;4725;48.384;8.984;2023-03-11T13:36:01;3.25;;;1.42;;
9370;SDS011;4725;48.384;8.984;2023-03-11T13:38:53;4.35;;;1.48;;
9370;SDS011;4725;48.384;8.984;2023-03-11T13:41:29;1.70;;;1.35;;
9370;SDS011;4725;48.384;8.984;2023-03-11T13:44:01;2.35;;;1.60;;
9370;SDS011;4725;48.384;8.984;2023-03-11T13:46:38;2.55;;;1.60;;
9370;SDS011;4725;48.384;8.984;2023-03-11T13:49:08;2.15;;;1.73;;
9370;SDS011;4725;48.384;8.984;2023-03-11T13:51:50;4.70;;;1.60;;
9370;SDS011;4725;48.384;8.984;2023-03-11T13:54:25;1.38;;;1.10;;
9370;SDS011;4725;48.384;8.984;2023-03-11T13:57:00;2.15;;;1.55;;
9370;SDS011;4725;48.384;8.984;2023-03-11T13:59:29;2.85;;;1.50;;
9370;SDS011;4725;48.384;8.984;2023-03-11T14:01:58;6.57;;;1.55;;
9370;SDS011;4725;48.384;8.984;2023-03-11T14:04:27;2.33;;;1.50;;
9370;SDS011;4725;48.384;8.984;2023-03-11T14:06:57;2.53;;;1.50;;
9370;SDS011;4725;48.384;8.984;2023-03-11T14:09:26;2.00;;;1.40;;
9370;SDS011;4725;48.384;8.984;2023-03-11T14:11:54;3.35;;;1.35;;
9370;SDS011;4725;48.384;8.984;2023-03-11T14:14:38;4.95;;;2.10;;
9370;SDS011;4725;48.384;8.984;2023-03-11T14:17:16;1.90;;;1.15;;
9370;SDS011;4725;48.384;8.984;2023-03-11T14:22:33;2.67;;;1.58;;
9370;SDS011;4725;48.384;8.984;2023-03-11T14:25:00;1.58;;;1.40;;
9370;SDS011;4725;48.384;8.984;2023-03-11T14:27:32;2.70;;;1.55;;
9370;SDS011;4725;48.384;8.984;2023-03-11T14:29:59;2.58;;;1.70;;
9370;SDS011;4725;48.384;8.984;2023-03-11T14:32:27;2.53;;;1.42;;
9370;SDS011;4725;48.384;8.984;2023-03-11T14:34:55;2.10;;;1.70;;
9370;SDS011;4725;48.384;8.984;2023-03-11T14:37:24;3.88;;;1.63;;
9370;SDS011;4725;48.384;8.984;2023-03-11T14:39:57;1.52;;;1.42;;
9370;SDS011;4725;48.384;8.984;2023-03-11T14:42:25;3.05;;;1.88;;
9370;SDS011;4725;48.384;8.984;2023-03-11T14:44:55;2.15;;;1.60;;
9370;SDS011;4725;48.384;8.984;2023-03-11T14:47:31;5.07;;;4.57;;
9370;SDS011;4725;48.384;8.984;2023-03-11T14:50:04;3.80;;;3.20;;
9370;SDS011;4725;48.384;8.984;2023-03-11T14:52:35;2.33;;;1.55;;
9370;SDS011;4725;48.384;8.984;2023-03-11T14:55:14;2.55;;;2.10;;
9370;SDS011;4725;48.384;8.984;2023-03-11T14:57:44;2.63;;;1.50;;
9370;SDS011;4725;48.384;8.984;2023-03-11T15:00:17;1.55;;;1.20;;
9370;SDS011;4725;48.384;8.984;2023-03-11T15:05:35;2.85;;;1.27;;
9370;SDS011;4725;48.384;8.984;2023-03-11T15:08:07;2.63;;;1.08;;
9370;SDS011;4725;48.384;8.984;2023-03-11T15:10:36;1.20;;;1.00;;
9370;SDS011;4725;48.384;8.984;2023-03-11T15:13:04;2.70;;;1.10;;
9370;SDS011;4725;48.384;8.984;2023-03-11T15:15:32;3.05;;;1.10;;
9370;SDS011;4725;48.384;8.984;2023-03-11T15:17:59;1.73;;;1.15;;
9370;SDS011;4725;48.384;8.984;2023-03-11T15:20:27;1.70;;;0.95;;
9370;SDS011;4725;48.384;8.984;2023-03-11T15:22:56;1.20;;;1.10;;
9370;SDS011;4725;48.384;8.984;2023-03-11T15:25:29;2.10;;;1.20;;
9370;SDS011;4725;48.384;8.984;2023-03-11T15:27:59;2.00;;;1.23;;
9370;SDS011;4725;48.384;8.984;2023-03-11T15:30:40;1.37;;;1.10;;
9370;SDS011;4725;48.384;8.984;2023-03-11T15:33:19;1.37;;;1.27;;
9370;SDS011;4725;48.384;8.984;2023-03-11T15:35:48;3.07;;;1.30;;
9370;SDS011;4725;48.384;8.984;2023-03-11T15:38:20;2.73;;;1.03;;
9370;SDS011;4725;48.384;8.984;2023-03-11T15:40:50;3.03;;;1.10;;
9370;SDS011;4725;48.384;8.984;2023-03-11T15:43:22;1.83;;;1.10;;
9370;SDS011;4725;48.384;8.984;2023-03-11T15:45:51;3.50;;;1.23;;
9370;SDS011;4725;48.384;8.984;2023-03-11T15:48:21;1.30;;;1.03;;
9370;SDS011;4725;48.384;8.984;2023-03-11T15:50:50;1.60;;;1.13;;
9370;SDS011;4725;48.384;8.984;2023-03-11T15:53:18;1.43;;;1.20;;
9370;SDS011;4725;48.384;8.984;2023-03-11T15:55:46;1.40;;;1.03;;